sensor_id;sensor_type;location;lat;lon;timestamp;temperature;humidity
65707;SHT31;52423;43.512;5.220;2022-09-12T00:01:25;19.21;76.88
65707;SHT31;52423;43.512;5.220;2022-09-12T00:03:57;19.14;77.12
65707;SHT31;52423;43.512;5.220;2022-09-12T00:06:28;19.25;77.08
65707;SHT31;52423;43.512;5.220;2022-09-12T00:08:57;19.18;77.43
65707;SHT31;52423;43.512;5.220;2022-09-12T00:11:22;19.23;77.31
65707;SHT31;52423;43.512;5.220;2022-09-12T00:13:48;19.20;77.33
65707;SHT31;52423;43.512;5.220;2022-09-12T00:16:19;19.18;77.48
65707;SHT31;52423;43.512;5.220;2022-09-12T00:18:45;19.18;77.53
65707;SHT31;52423;43.512;5.220;2022-09-12T00:21:11;19.14;77.90
65707;SHT31;52423;43.512;5.220;2022-09-12T00:23:37;19.20;77.54
65707;SHT31;52423;43.512;5.220;2022-09-12T00:26:05;19.21;77.60
65707;SHT31;52423;43.512;5.220;2022-09-12T00:28:33;19.20;77.92
65707;SHT31;52423;43.512;5.220;2022-09-12T00:30:58;19.17;77.97
65707;SHT31;52423;43.512;5.220;2022-09-12T00:33:25;19.20;77.95
65707;SHT31;52423;43.512;5.220;2022-09-12T00:35:51;19.23;77.90
65707;SHT31;52423;43.512;5.220;2022-09-12T00:38:19;19.24;77.68
65707;SHT31;52423;43.512;5.220;2022-09-12T00:40:46;19.28;77.83
65707;SHT31;52423;43.512;5.220;2022-09-12T00:43:37;19.25;77.80
65707;SHT31;52423;43.512;5.220;2022-09-12T00:48:57;19.11;77.66
65707;SHT31;52423;43.512;5.220;2022-09-12T00:51:24;19.21;77.37
65707;SHT31;52423;43.512;5.220;2022-09-12T00:53:52;19.18;77.29
65707;SHT31;52423;43.512;5.220;2022-09-12T00:56:19;19.08;77.57
65707;SHT31;52423;43.512;5.220;2022-09-12T00:59:07;19.13;77.52
65707;SHT31;52423;43.512;5.220;2022-09-12T01:01:36;19.15;77.06
65707;SHT31;52423;43.512;5.220;2022-09-12T01:04:03;19.08;77.25
65707;SHT31;52423;43.512;5.220;2022-09-12T01:06:37;19.08;77.17
65707;SHT31;52423;43.512;5.220;2022-09-12T01:09:04;19.07;77.17
65707;SHT31;52423;43.512;5.220;2022-09-12T01:11:33;19.06;77.22
65707;SHT31;52423;43.512;5.220;2022-09-12T01:14:00;19.06;77.26
65707;SHT31;52423;43.512;5.220;2022-09-12T01:16:26;18.99;77.30
65707;SHT31;52423;43.512;5.220;2022-09-12T01:21:51;18.96;77.22
65707;SHT31;52423;43.512;5.220;2022-09-12T01:24:41;18.99;77.22
65707;SHT31;52423;43.512;5.220;2022-09-12T01:33:16;19.00;77.44
65707;SHT31;52423;43.512;5.220;2022-09-12T01:38:36;18.96;76.84
65707;SHT31;52423;43.512;5.220;2022-09-12T01:43:39;19.03;76.57
65707;SHT31;52423;43.512;5.220;2022-09-12T01:46:14;18.99;76.73
65707;SHT31;52423;43.512;5.220;2022-09-12T01:48:58;18.99;76.65
65707;SHT31;52423;43.512;5.220;2022-09-12T01:51:37;18.99;76.66
65707;SHT31;52423;43.512;5.220;2022-09-12T01:54:10;19.07;76.36
65707;SHT31;52423;43.512;5.220;2022-09-12T01:56:39;18.99;76.51
65707;SHT31;52423;43.512;5.220;2022-09-12T01:59:29;18.94;77.04
65707;SHT31;52423;43.512;5.220;2022-09-12T02:01:59;18.92;76.91
65707;SHT31;52423;43.512;5.220;2022-09-12T02:04:33;18.90;76.89
65707;SHT31;52423;43.512;5.220;2022-09-12T02:07:17;18.87;76.63
65707;SHT31;52423;43.512;5.220;2022-09-12T02:09:49;18.93;77.08
65707;SHT31;52423;43.512;5.220;2022-09-12T02:12:17;18.84;76.64
65707;SHT31;52423;43.512;5.220;2022-09-12T02:14:49;18.87;76.58
65707;SHT31;52423;43.512;5.220;2022-09-12T02:17:20;18.83;77.07
65707;SHT31;52423;43.512;5.220;2022-09-12T02:19:53;18.83;76.40
65707;SHT31;52423;43.512;5.220;2022-09-12T02:22:20;18.83;76.57
65707;SHT31;52423;43.512;5.220;2022-09-12T02:24:53;18.87;76.26
65707;SHT31;52423;43.512;5.220;2022-09-12T02:27:26;18.83;76.42
65707;SHT31;52423;43.512;5.220;2022-09-12T02:29:54;18.87;76.47
65707;SHT31;52423;43.512;5.220;2022-09-12T02:32:30;18.89;76.25
65707;SHT31;52423;43.512;5.220;2022-09-12T02:35:23;18.87;75.99
65707;SHT31;52423;43.512;5.220;2022-09-12T02:40:31;18.90;76.02
65707;SHT31;52423;43.512;5.220;2022-09-12T02:42:58;18.90;76.45
65707;SHT31;52423;43.512;5.220;2022-09-12T02:45:24;18.94;75.92
65707;SHT31;52423;43.512;5.220;2022-09-12T02:50:28;18.92;75.82
65707;SHT31;52423;43.512;5.220;2022-09-12T02:52:54;18.83;76.12
65707;SHT31;52423;43.512;5.220;2022-09-12T02:55:25;18.79;76.58
65707;SHT31;52423;43.512;5.220;2022-09-12T02:57:51;18.72;76.61
65707;SHT31;52423;43.512;5.220;2022-09-12T03:00:16;18.77;76.43
65707;SHT31;52423;43.512;5.220;2022-09-12T03:06:00;18.83;76.28
65707;SHT31;52423;43.512;5.220;2022-09-12T03:08:53;18.84;76.09
65707;SHT31;52423;43.512;5.220;2022-09-12T03:11:56;18.89;76.24
65707;SHT31;52423;43.512;5.220;2022-09-12T03:20:30;18.77;76.40
65707;SHT31;52423;43.512;5.220;2022-09-12T03:23:04;18.72;76.83
65707;SHT31;52423;43.512;5.220;2022-09-12T03:25:42;18.51;77.77
65707;SHT31;52423;43.512;5.220;2022-09-12T03:28:12;18.57;77.98
65707;SHT31;52423;43.512;5.220;2022-09-12T03:30:40;18.55;76.81
65707;SHT31;52423;43.512;5.220;2022-09-12T03:33:10;18.57;76.90
65707;SHT31;52423;43.512;5.220;2022-09-12T03:35:36;18.63;76.47
65707;SHT31;52423;43.512;5.220;2022-09-12T03:38:02;18.55;77.20
65707;SHT31;52423;43.512;5.220;2022-09-12T03:40:28;18.60;76.73
65707;SHT31;52423;43.512;5.220;2022-09-12T03:42:53;18.59;75.93
65707;SHT31;52423;43.512;5.220;2022-09-12T03:45:19;18.63;75.66
65707;SHT31;52423;43.512;5.220;2022-09-12T03:47:44;18.56;75.85
65707;SHT31;52423;43.512;5.220;2022-09-12T03:50:10;18.57;75.15
65707;SHT31;52423;43.512;5.220;2022-09-12T03:52:36;18.59;75.26
65707;SHT31;52423;43.512;5.220;2022-09-12T03:55:02;18.53;74.89
65707;SHT31;52423;43.512;5.220;2022-09-12T03:57:27;18.52;74.92
65707;SHT31;52423;43.512;5.220;2022-09-12T03:59:53;18.49;75.00
65707;SHT31;52423;43.512;5.220;2022-09-12T04:02:19;18.43;74.91
65707;SHT31;52423;43.512;5.220;2022-09-12T04:04:45;18.45;74.81
65707;SHT31;52423;43.512;5.220;2022-09-12T04:07:14;18.43;74.94
65707;SHT31;52423;43.512;5.220;2022-09-12T04:09:39;18.41;75.00
65707;SHT31;52423;43.512;5.220;2022-09-12T04:12:05;18.39;74.76
65707;SHT31;52423;43.512;5.220;2022-09-12T04:14:31;18.39;74.92
65707;SHT31;52423;43.512;5.220;2022-09-12T04:16:57;18.36;74.85
65707;SHT31;52423;43.512;5.220;2022-09-12T04:19:24;18.36;75.24
65707;SHT31;52423;43.512;5.220;2022-09-12T04:21:50;18.29;75.19
65707;SHT31;52423;43.512;5.220;2022-09-12T04:24:15;18.25;75.09
65707;SHT31;52423;43.512;5.220;2022-09-12T04:26:41;18.21;75.08
65707;SHT31;52423;43.512;5.220;2022-09-12T04:29:09;18.25;75.05
65707;SHT31;52423;43.512;5.220;2022-09-12T04:31:36;18.22;75.20
65707;SHT31;52423;43.512;5.220;2022-09-12T04:34:01;18.25;75.18
65707;SHT31;52423;43.512;5.220;2022-09-12T04:36:28;18.21;75.46
65707;SHT31;52423;43.512;5.220;2022-09-12T04:38:54;18.16;75.62
65707;SHT31;52423;43.512;5.220;2022-09-12T04:41:22;18.19;75.78
65707;SHT31;52423;43.512;5.220;2022-09-12T04:43:52;18.16;75.58
65707;SHT31;52423;43.512;5.220;2022-09-12T04:46:18;18.14;75.85
65707;SHT31;52423;43.512;5.220;2022-09-12T04:48:45;18.12;75.98
65707;SHT31;52423;43.512;5.220;2022-09-12T04:51:12;18.16;76.01
65707;SHT31;52423;43.512;5.220;2022-09-12T04:53:39;18.16;76.08
65707;SHT31;52423;43.512;5.220;2022-09-12T04:56:07;18.16;76.01
65707;SHT31;52423;43.512;5.220;2022-09-12T04:58:33;18.19;75.68
65707;SHT31;52423;43.512;5.220;2022-09-12T05:01:07;18.31;74.69
65707;SHT31;52423;43.512;5.220;2022-09-12T05:03:33;18.31;74.16
65707;SHT31;52423;43.512;5.220;2022-09-12T05:06:02;18.35;73.46
65707;SHT31;52423;43.512;5.220;2022-09-12T05:08:28;18.29;73.38
65707;SHT31;52423;43.512;5.220;2022-09-12T05:10:54;18.26;73.73
65707;SHT31;52423;43.512;5.220;2022-09-12T05:13:19;18.29;73.86
65707;SHT31;52423;43.512;5.220;2022-09-12T05:15:57;18.22;73.13
65707;SHT31;52423;43.512;5.220;2022-09-12T05:18:23;18.25;73.13
65707;SHT31;52423;43.512;5.220;2022-09-12T05:20:48;18.25;72.74
65707;SHT31;52423;43.512;5.220;2022-09-12T05:23:14;18.25;72.16
65707;SHT31;52423;43.512;5.220;2022-09-12T05:25:50;18.29;72.26
65707;SHT31;52423;43.512;5.220;2022-09-12T05:28:17;18.31;71.87
65707;SHT31;52423;43.512;5.220;2022-09-12T05:30:43;18.28;71.79
65707;SHT31;52423;43.512;5.220;2022-09-12T05:33:09;18.36;71.93
65707;SHT31;52423;43.512;5.220;2022-09-12T05:35:35;18.36;71.86
65707;SHT31;52423;43.512;5.220;2022-09-12T05:38:03;18.39;71.62
65707;SHT31;52423;43.512;5.220;2022-09-12T05:40:30;18.43;71.72
65707;SHT31;52423;43.512;5.220;2022-09-12T05:42:56;18.49;71.40
65707;SHT31;52423;43.512;5.220;2022-09-12T05:45:22;18.46;71.20
65707;SHT31;52423;43.512;5.220;2022-09-12T05:47:48;18.53;71.29
65707;SHT31;52423;43.512;5.220;2022-09-12T05:50:14;18.57;70.98
65707;SHT31;52423;43.512;5.220;2022-09-12T05:52:40;18.62;70.51
65707;SHT31;52423;43.512;5.220;2022-09-12T05:55:06;18.63;70.91
65707;SHT31;52423;43.512;5.220;2022-09-12T05:57:32;18.72;70.25
65707;SHT31;52423;43.512;5.220;2022-09-12T05:59:58;18.73;69.91
65707;SHT31;52423;43.512;5.220;2022-09-12T06:02:24;18.76;70.48
65707;SHT31;52423;43.512;5.220;2022-09-12T06:04:49;18.82;70.15
65707;SHT31;52423;43.512;5.220;2022-09-12T06:07:15;18.84;70.22
65707;SHT31;52423;43.512;5.220;2022-09-12T06:09:41;18.87;70.69
65707;SHT31;52423;43.512;5.220;2022-09-12T06:12:06;18.94;70.01
65707;SHT31;52423;43.512;5.220;2022-09-12T06:14:33;19.02;69.91
65707;SHT31;52423;43.512;5.220;2022-09-12T06:16:58;19.07;70.19
65707;SHT31;52423;43.512;5.220;2022-09-12T06:19:24;19.15;70.08
65707;SHT31;52423;43.512;5.220;2022-09-12T06:21:52;19.23;69.52
65707;SHT31;52423;43.512;5.220;2022-09-12T06:24:19;19.30;69.38
65707;SHT31;52423;43.512;5.220;2022-09-12T06:26:45;19.35;68.44
65707;SHT31;52423;43.512;5.220;2022-09-12T06:29:12;19.43;68.62
65707;SHT31;52423;43.512;5.220;2022-09-12T06:31:38;19.58;68.98
65707;SHT31;52423;43.512;5.220;2022-09-12T06:34:09;19.64;67.84
65707;SHT31;52423;43.512;5.220;2022-09-12T06:36:43;19.75;67.62
65707;SHT31;52423;43.512;5.220;2022-09-12T06:39:17;19.89;68.00
65707;SHT31;52423;43.512;5.220;2022-09-12T06:41:44;19.96;67.16
65707;SHT31;52423;43.512;5.220;2022-09-12T06:44:15;20.09;67.53
65707;SHT31;52423;43.512;5.220;2022-09-12T06:46:41;20.19;67.26
65707;SHT31;52423;43.512;5.220;2022-09-12T06:49:07;20.33;66.58
65707;SHT31;52423;43.512;5.220;2022-09-12T06:51:33;20.44;66.99
65707;SHT31;52423;43.512;5.220;2022-09-12T06:54:02;20.57;66.45
65707;SHT31;52423;43.512;5.220;2022-09-12T06:56:41;20.67;66.15
65707;SHT31;52423;43.512;5.220;2022-09-12T06:59:10;20.85;66.59
65707;SHT31;52423;43.512;5.220;2022-09-12T07:01:36;20.90;64.71
65707;SHT31;52423;43.512;5.220;2022-09-12T07:04:05;20.99;64.53
65707;SHT31;52423;43.512;5.220;2022-09-12T07:06:40;21.21;64.88
65707;SHT31;52423;43.512;5.220;2022-09-12T07:09:11;21.29;64.00
65707;SHT31;52423;43.512;5.220;2022-09-12T07:11:42;21.42;63.96
65707;SHT31;52423;43.512;5.220;2022-09-12T07:14:11;21.53;64.06
65707;SHT31;52423;43.512;5.220;2022-09-12T07:16:38;21.72;63.84
65707;SHT31;52423;43.512;5.220;2022-09-12T07:19:05;21.82;62.58
65707;SHT31;52423;43.512;5.220;2022-09-12T07:21:31;21.97;62.09
65707;SHT31;52423;43.512;5.220;2022-09-12T07:23:57;22.03;62.23
65707;SHT31;52423;43.512;5.220;2022-09-12T07:26:25;22.22;61.40
65707;SHT31;52423;43.512;5.220;2022-09-12T07:28:52;22.20;61.25
65707;SHT31;52423;43.512;5.220;2022-09-12T07:31:19;22.24;60.60
65707;SHT31;52423;43.512;5.220;2022-09-12T07:33:45;22.28;60.57
65707;SHT31;52423;43.512;5.220;2022-09-12T07:36:16;22.38;60.11
65707;SHT31;52423;43.512;5.220;2022-09-12T07:38:42;22.47;59.95
65707;SHT31;52423;43.512;5.220;2022-09-12T07:41:19;22.59;59.71
65707;SHT31;52423;43.512;5.220;2022-09-12T07:43:45;22.64;59.94
65707;SHT31;52423;43.512;5.220;2022-09-12T07:46:11;22.98;60.67
65707;SHT31;52423;43.512;5.220;2022-09-12T07:48:38;22.96;58.54
65707;SHT31;52423;43.512;5.220;2022-09-12T07:51:07;23.14;58.48
65707;SHT31;52423;43.512;5.220;2022-09-12T07:53:37;23.20;58.65
65707;SHT31;52423;43.512;5.220;2022-09-12T07:56:05;23.31;58.04
65707;SHT31;52423;43.512;5.220;2022-09-12T07:58:32;23.60;58.65
65707;SHT31;52423;43.512;5.220;2022-09-12T08:01:09;23.61;58.20
65707;SHT31;52423;43.512;5.220;2022-09-12T08:03:35;23.68;55.89
65707;SHT31;52423;43.512;5.220;2022-09-12T08:06:09;23.98;57.89
65707;SHT31;52423;43.512;5.220;2022-09-12T08:08:35;24.40;55.41
65707;SHT31;52423;43.512;5.220;2022-09-12T08:11:03;24.60;55.03
65707;SHT31;52423;43.512;5.220;2022-09-12T08:13:31;24.63;53.87
65707;SHT31;52423;43.512;5.220;2022-09-12T08:16:02;25.00;52.99
65707;SHT31;52423;43.512;5.220;2022-09-12T08:18:29;25.15;53.20
65707;SHT31;52423;43.512;5.220;2022-09-12T08:21:02;24.97;53.25
65707;SHT31;52423;43.512;5.220;2022-09-12T08:23:28;24.86;51.93
65707;SHT31;52423;43.512;5.220;2022-09-12T08:25:58;25.14;53.55
65707;SHT31;52423;43.512;5.220;2022-09-12T08:28:26;25.10;51.49
65707;SHT31;52423;43.512;5.220;2022-09-12T08:30:52;25.45;51.65
65707;SHT31;52423;43.512;5.220;2022-09-12T08:33:19;25.62;50.44
65707;SHT31;52423;43.512;5.220;2022-09-12T08:35:45;25.96;50.13
65707;SHT31;52423;43.512;5.220;2022-09-12T08:38:11;26.00;49.51
65707;SHT31;52423;43.512;5.220;2022-09-12T08:40:46;25.92;49.06
65707;SHT31;52423;43.512;5.220;2022-09-12T08:46:18;26.27;47.15
65707;SHT31;52423;43.512;5.220;2022-09-12T08:48:47;26.51;46.41
65707;SHT31;52423;43.512;5.220;2022-09-12T08:51:14;26.63;46.29
65707;SHT31;52423;43.512;5.220;2022-09-12T08:53:42;26.36;45.99
65707;SHT31;52423;43.512;5.220;2022-09-12T08:56:09;26.64;46.95
65707;SHT31;52423;43.512;5.220;2022-09-12T08:58:40;26.64;45.79
65707;SHT31;52423;43.512;5.220;2022-09-12T09:01:34;27.04;44.30
65707;SHT31;52423;43.512;5.220;2022-09-12T09:12:21;27.04;43.72
65707;SHT31;52423;43.512;5.220;2022-09-12T09:14:56;27.09;43.61
65707;SHT31;52423;43.512;5.220;2022-09-12T09:17:32;26.65;44.82
65707;SHT31;52423;43.512;5.220;2022-09-12T09:20:11;26.82;44.65
65707;SHT31;52423;43.512;5.220;2022-09-12T09:22:43;27.28;44.35
65707;SHT31;52423;43.512;5.220;2022-09-12T09:25:16;27.60;42.09
65707;SHT31;52423;43.512;5.220;2022-09-12T09:27:59;27.84;42.09
65707;SHT31;52423;43.512;5.220;2022-09-12T09:30:26;27.89;41.57
65707;SHT31;52423;43.512;5.220;2022-09-12T09:32:55;27.89;43.01
65707;SHT31;52423;43.512;5.220;2022-09-12T09:43:51;27.66;40.34
65707;SHT31;52423;43.512;5.220;2022-09-12T09:46:17;27.86;41.08
65707;SHT31;52423;43.512;5.220;2022-09-12T09:48:48;27.79;40.60
65707;SHT31;52423;43.512;5.220;2022-09-12T09:51:16;27.41;41.44
65707;SHT31;52423;43.512;5.220;2022-09-12T09:53:59;27.74;43.04
65707;SHT31;52423;43.512;5.220;2022-09-12T09:56:30;27.59;42.36
65707;SHT31;52423;43.512;5.220;2022-09-12T10:04:26;28.42;41.31
65707;SHT31;52423;43.512;5.220;2022-09-12T10:06:56;28.41;40.30
65707;SHT31;52423;43.512;5.220;2022-09-12T10:09:27;28.48;39.32
65707;SHT31;52423;43.512;5.220;2022-09-12T10:11:54;28.15;40.59
65707;SHT31;52423;43.512;5.220;2022-09-12T10:14:38;28.37;39.29
65707;SHT31;52423;43.512;5.220;2022-09-12T10:19:47;28.25;39.90
65707;SHT31;52423;43.512;5.220;2022-09-12T10:22:19;28.34;38.22
65707;SHT31;52423;43.512;5.220;2022-09-12T10:24:49;28.51;38.11
65707;SHT31;52423;43.512;5.220;2022-09-12T10:27:22;28.47;38.63
65707;SHT31;52423;43.512;5.220;2022-09-12T10:30:03;28.48;37.86
65707;SHT31;52423;43.512;5.220;2022-09-12T10:32:35;28.65;38.18
65707;SHT31;52423;43.512;5.220;2022-09-12T10:35:04;28.69;37.51
65707;SHT31;52423;43.512;5.220;2022-09-12T10:37:37;28.75;37.73
65707;SHT31;52423;43.512;5.220;2022-09-12T10:40:19;28.73;37.96
65707;SHT31;52423;43.512;5.220;2022-09-12T10:47:55;28.71;38.43
65707;SHT31;52423;43.512;5.220;2022-09-12T10:50:39;28.93;38.39
65707;SHT31;52423;43.512;5.220;2022-09-12T10:53:21;28.99;38.20
65707;SHT31;52423;43.512;5.220;2022-09-12T11:01:34;29.26;36.67
65707;SHT31;52423;43.512;5.220;2022-09-12T11:14:57;29.20;38.80
65707;SHT31;52423;43.512;5.220;2022-09-12T11:17:49;29.47;38.00
65707;SHT31;52423;43.512;5.220;2022-09-12T11:25:30;29.22;38.75
65707;SHT31;52423;43.512;5.220;2022-09-12T11:28:13;29.37;38.20
65707;SHT31;52423;43.512;5.220;2022-09-12T11:33:52;29.49;38.47
65707;SHT31;52423;43.512;5.220;2022-09-12T11:39:35;29.49;36.70
65707;SHT31;52423;43.512;5.220;2022-09-12T11:42:03;29.46;37.71
65707;SHT31;52423;43.512;5.220;2022-09-12T11:44:37;29.17;37.39
65707;SHT31;52423;43.512;5.220;2022-09-12T11:47:12;29.13;38.12
65707;SHT31;52423;43.512;5.220;2022-09-12T11:49:45;29.38;38.46
65707;SHT31;52423;43.512;5.220;2022-09-12T11:52:28;29.43;37.61
65707;SHT31;52423;43.512;5.220;2022-09-12T11:55:04;29.65;39.04
65707;SHT31;52423;43.512;5.220;2022-09-12T11:57:51;29.47;38.62
65707;SHT31;52423;43.512;5.220;2022-09-12T12:03:07;29.71;39.19
65707;SHT31;52423;43.512;5.220;2022-09-12T12:08:10;29.64;39.41
65707;SHT31;52423;43.512;5.220;2022-09-12T12:10:47;28.95;39.84
65707;SHT31;52423;43.512;5.220;2022-09-12T12:13:30;28.92;41.24
65707;SHT31;52423;43.512;5.220;2022-09-12T12:18:30;29.50;41.05
65707;SHT31;52423;43.512;5.220;2022-09-12T12:34:42;28.93;44.16
65707;SHT31;52423;43.512;5.220;2022-09-12T12:42:24;29.26;43.13
65707;SHT31;52423;43.512;5.220;2022-09-12T12:44:55;29.06;42.73
65707;SHT31;52423;43.512;5.220;2022-09-12T12:47:24;28.72;43.56
65707;SHT31;52423;43.512;5.220;2022-09-12T12:49:55;29.00;43.68
65707;SHT31;52423;43.512;5.220;2022-09-12T12:52:23;28.79;43.76
65707;SHT31;52423;43.512;5.220;2022-09-12T12:54:56;28.89;44.15
65707;SHT31;52423;43.512;5.220;2022-09-12T13:03:27;28.91;44.11
65707;SHT31;52423;43.512;5.220;2022-09-12T13:06:00;28.85;45.07
65707;SHT31;52423;43.512;5.220;2022-09-12T13:08:32;28.76;46.90
65707;SHT31;52423;43.512;5.220;2022-09-12T13:10:59;28.76;46.77
65707;SHT31;52423;43.512;5.220;2022-09-12T13:13:41;28.63;48.08
65707;SHT31;52423;43.512;5.220;2022-09-12T13:16:10;28.93;48.64
65707;SHT31;52423;43.512;5.220;2022-09-12T13:18:43;28.79;49.44
65707;SHT31;52423;43.512;5.220;2022-09-12T13:21:18;28.68;51.31
65707;SHT31;52423;43.512;5.220;2022-09-12T13:24:02;28.69;52.40
65707;SHT31;52423;43.512;5.220;2022-09-12T13:26:33;28.65;51.76
65707;SHT31;52423;43.512;5.220;2022-09-12T13:29:16;28.71;52.33
65707;SHT31;52423;43.512;5.220;2022-09-12T13:31:48;29.00;51.52
65707;SHT31;52423;43.512;5.220;2022-09-12T13:34:21;29.06;51.93
65707;SHT31;52423;43.512;5.220;2022-09-12T13:42:46;28.66;54.47
65707;SHT31;52423;43.512;5.220;2022-09-12T13:47:47;28.76;54.49
65707;SHT31;52423;43.512;5.220;2022-09-12T13:50:21;28.65;54.71
65707;SHT31;52423;43.512;5.220;2022-09-12T13:52:59;28.88;54.31
65707;SHT31;52423;43.512;5.220;2022-09-12T13:55:34;29.04;53.22
65707;SHT31;52423;43.512;5.220;2022-09-12T13:58:21;29.03;53.47
65707;SHT31;52423;43.512;5.220;2022-09-12T14:00:59;28.98;53.68
65707;SHT31;52423;43.512;5.220;2022-09-12T14:03:31;28.72;54.28
65707;SHT31;52423;43.512;5.220;2022-09-12T14:06:16;28.75;54.27
65707;SHT31;52423;43.512;5.220;2022-09-12T14:08:46;28.76;54.77
65707;SHT31;52423;43.512;5.220;2022-09-12T14:11:30;28.82;54.29
65707;SHT31;52423;43.512;5.220;2022-09-12T14:14:01;28.56;54.36
65707;SHT31;52423;43.512;5.220;2022-09-12T14:16:30;28.83;54.53
65707;SHT31;52423;43.512;5.220;2022-09-12T14:18:59;28.62;54.27
65707;SHT31;52423;43.512;5.220;2022-09-12T14:23:55;28.15;56.23
65707;SHT31;52423;43.512;5.220;2022-09-12T14:26:22;28.38;55.03
65707;SHT31;52423;43.512;5.220;2022-09-12T14:28:49;28.51;55.06
65707;SHT31;52423;43.512;5.220;2022-09-12T14:31:29;28.56;55.06
65707;SHT31;52423;43.512;5.220;2022-09-12T14:34:14;28.41;53.61
65707;SHT31;52423;43.512;5.220;2022-09-12T14:36:50;28.56;53.99
65707;SHT31;52423;43.512;5.220;2022-09-12T14:39:23;28.51;53.25
65707;SHT31;52423;43.512;5.220;2022-09-12T14:42:03;28.32;53.55
65707;SHT31;52423;43.512;5.220;2022-09-12T14:44:30;28.17;54.41
65707;SHT31;52423;43.512;5.220;2022-09-12T14:47:09;28.20;54.20
65707;SHT31;52423;43.512;5.220;2022-09-12T14:49:36;27.97;54.71
65707;SHT31;52423;43.512;5.220;2022-09-12T14:52:04;28.08;54.79
65707;SHT31;52423;43.512;5.220;2022-09-12T14:56:59;28.04;54.73
65707;SHT31;52423;43.512;5.220;2022-09-12T15:04:52;27.80;54.83
65707;SHT31;52423;43.512;5.220;2022-09-12T15:07:41;27.71;56.10
65707;SHT31;52423;43.512;5.220;2022-09-12T15:13:15;27.60;56.57
65707;SHT31;52423;43.512;5.220;2022-09-12T15:15:43;27.53;58.05
65707;SHT31;52423;43.512;5.220;2022-09-12T15:18:10;27.57;58.56
65707;SHT31;52423;43.512;5.220;2022-09-12T15:20:38;27.53;56.40
65707;SHT31;52423;43.512;5.220;2022-09-12T15:23:08;27.50;56.70
65707;SHT31;52423;43.512;5.220;2022-09-12T15:25:36;27.28;57.35
65707;SHT31;52423;43.512;5.220;2022-09-12T15:28:10;27.18;57.34
65707;SHT31;52423;43.512;5.220;2022-09-12T15:30:38;27.18;57.75
65707;SHT31;52423;43.512;5.220;2022-09-12T15:33:04;27.22;58.46
65707;SHT31;52423;43.512;5.220;2022-09-12T15:35:31;27.32;59.03
65707;SHT31;52423;43.512;5.220;2022-09-12T15:37:57;27.35;58.38
65707;SHT31;52423;43.512;5.220;2022-09-12T15:40:23;27.33;59.36
65707;SHT31;52423;43.512;5.220;2022-09-12T15:42:50;27.18;59.41
65707;SHT31;52423;43.512;5.220;2022-09-12T15:45:22;27.18;58.87
65707;SHT31;52423;43.512;5.220;2022-09-12T15:47:50;27.09;59.80
65707;SHT31;52423;43.512;5.220;2022-09-12T15:50:16;27.06;60.25
65707;SHT31;52423;43.512;5.220;2022-09-12T15:52:42;27.01;60.44
65707;SHT31;52423;43.512;5.220;2022-09-12T15:55:19;27.12;60.90
65707;SHT31;52423;43.512;5.220;2022-09-12T15:57:45;27.11;60.56
65707;SHT31;52423;43.512;5.220;2022-09-12T16:00:12;27.05;61.00
65707;SHT31;52423;43.512;5.220;2022-09-12T16:02:39;26.99;60.81
65707;SHT31;52423;43.512;5.220;2022-09-12T16:05:05;26.94;61.00
65707;SHT31;52423;43.512;5.220;2022-09-12T16:07:35;26.95;60.98
65707;SHT31;52423;43.512;5.220;2022-09-12T16:10:00;26.91;61.70
65707;SHT31;52423;43.512;5.220;2022-09-12T16:12:26;26.75;61.59
65707;SHT31;52423;43.512;5.220;2022-09-12T16:14:52;26.78;61.31
65707;SHT31;52423;43.512;5.220;2022-09-12T16:17:17;26.78;61.22
65707;SHT31;52423;43.512;5.220;2022-09-12T16:19:43;26.71;62.05
65707;SHT31;52423;43.512;5.220;2022-09-12T16:22:09;26.68;62.29
65707;SHT31;52423;43.512;5.220;2022-09-12T16:24:34;26.58;62.71
65707;SHT31;52423;43.512;5.220;2022-09-12T16:27:00;26.57;63.59
65707;SHT31;52423;43.512;5.220;2022-09-12T16:29:25;26.53;64.11
65707;SHT31;52423;43.512;5.220;2022-09-12T16:31:51;26.43;64.07
65707;SHT31;52423;43.512;5.220;2022-09-12T16:34:16;26.32;64.32
65707;SHT31;52423;43.512;5.220;2022-09-12T16:36:42;26.29;64.39
65707;SHT31;52423;43.512;5.220;2022-09-12T16:39:09;26.23;64.44
65707;SHT31;52423;43.512;5.220;2022-09-12T16:41:35;26.23;65.17
65707;SHT31;52423;43.512;5.220;2022-09-12T16:44:00;26.20;65.26
65707;SHT31;52423;43.512;5.220;2022-09-12T16:46:26;26.10;64.78
65707;SHT31;52423;43.512;5.220;2022-09-12T16:48:56;26.06;65.84
65707;SHT31;52423;43.512;5.220;2022-09-12T16:51:29;26.04;66.13
65707;SHT31;52423;43.512;5.220;2022-09-12T16:53:56;26.00;65.97
65707;SHT31;52423;43.512;5.220;2022-09-12T16:56:22;25.96;66.04
65707;SHT31;52423;43.512;5.220;2022-09-12T16:58:54;25.90;65.93
65707;SHT31;52423;43.512;5.220;2022-09-12T17:01:22;25.89;65.95
65707;SHT31;52423;43.512;5.220;2022-09-12T17:03:51;25.83;66.00
65707;SHT31;52423;43.512;5.220;2022-09-12T17:06:18;25.75;66.13
65707;SHT31;52423;43.512;5.220;2022-09-12T17:08:46;25.73;66.46
65707;SHT31;52423;43.512;5.220;2022-09-12T17:11:24;25.68;66.64
65707;SHT31;52423;43.512;5.220;2022-09-12T17:14:01;25.66;67.32
65707;SHT31;52423;43.512;5.220;2022-09-12T17:16:28;25.68;67.42
65707;SHT31;52423;43.512;5.220;2022-09-12T17:18:54;25.61;67.65
65707;SHT31;52423;43.512;5.220;2022-09-12T17:21:20;25.55;67.78
65707;SHT31;52423;43.512;5.220;2022-09-12T17:23:46;25.48;68.06
65707;SHT31;52423;43.512;5.220;2022-09-12T17:26:13;25.42;68.32
65707;SHT31;52423;43.512;5.220;2022-09-12T17:28:39;25.37;68.62
65707;SHT31;52423;43.512;5.220;2022-09-12T17:31:08;25.31;68.55
65707;SHT31;52423;43.512;5.220;2022-09-12T17:33:34;25.30;68.33
65707;SHT31;52423;43.512;5.220;2022-09-12T17:36:01;25.27;68.39
65707;SHT31;52423;43.512;5.220;2022-09-12T17:38:30;25.21;68.67
65707;SHT31;52423;43.512;5.220;2022-09-12T17:41:03;25.21;68.87
65707;SHT31;52423;43.512;5.220;2022-09-12T17:43:29;25.20;69.27
65707;SHT31;52423;43.512;5.220;2022-09-12T17:45:55;25.10;69.65
65707;SHT31;52423;43.512;5.220;2022-09-12T17:48:21;25.06;69.52
65707;SHT31;52423;43.512;5.220;2022-09-12T17:50:47;25.04;69.66
65707;SHT31;52423;43.512;5.220;2022-09-12T17:53:13;25.01;69.97
65707;SHT31;52423;43.512;5.220;2022-09-12T17:55:38;24.91;70.43
65707;SHT31;52423;43.512;5.220;2022-09-12T17:58:05;24.84;70.72
65707;SHT31;52423;43.512;5.220;2022-09-12T18:00:30;24.86;71.01
65707;SHT31;52423;43.512;5.220;2022-09-12T18:03:15;24.79;70.96
65707;SHT31;52423;43.512;5.220;2022-09-12T18:05:51;24.64;71.73
65707;SHT31;52423;43.512;5.220;2022-09-12T18:08:17;24.55;72.10
65707;SHT31;52423;43.512;5.220;2022-09-12T18:10:44;24.57;72.00
65707;SHT31;52423;43.512;5.220;2022-09-12T18:13:10;24.49;72.20
65707;SHT31;52423;43.512;5.220;2022-09-12T18:15:36;24.45;72.37